Time;durP1;ratioP1;P1;durP2;ratioP2;P2;SDS_P1;SDS_P2;PMS_P1;PMS_P2;Temp;Humidity;BMP_temperature;BMP_pressure;BME280_temperature;BME280_humidity;BME280_pressure;Samples;Min_cycle;Max_cycle;Signal;HPM_P1;HPM_P2
2023/03/03 00:01:24;;;;;;;50.20;40.05;;;-1.00;99.90;;;;;;4938080;28;20193;-42
2023/03/03 00:03:49;;;;;;;57.20;41.28;;;-1.00;99.90;;;;;;4938842;28;20644;-45
2023/03/03 00:06:15;;;;;;;54.03;40.57;;;-1.00;99.90;;;;;;4938655;28;20198;-45
2023/03/03 00:08:41;;;;;;;53.20;40.10;;;-1.00;99.90;;;;;;4938581;28;20198;-46
2023/03/03 00:11:08;;;;;;;57.03;42.20;;;-1.00;99.90;;;;;;4939795;28;20269;-42
2023/03/03 00:13:54;;;;;;;53.78;41.10;;;-0.90;99.90;;;;;;4938240;28;20433;-41
2023/03/03 00:16:29;;;;;;;53.63;40.63;;;-0.80;99.90;;;;;;4938702;28;20244;-43
2023/03/03 00:18:55;;;;;;;60.63;42.10;;;-0.70;99.90;;;;;;4936836;28;20238;-42
2023/03/03 00:21:45;;;;;;;59.47;42.08;;;-0.60;99.90;;;;;;4939545;28;20225;-45
2023/03/03 00:24:43;;;;;;;61.80;41.83;;;-0.50;99.90;;;;;;4937300;28;20236;-43
2023/03/03 00:27:27;;;;;;;59.05;41.75;;;-0.30;99.90;;;;;;4969034;28;20212;-45
2023/03/03 00:29:56;;;;;;;63.25;43.20;;;-0.10;99.90;;;;;;4937410;28;20202;-42
2023/03/03 00:32:49;;;;;;;71.90;45.53;;;0.00;99.90;;;;;;4937975;28;20517;-45
2023/03/03 00:35:25;;;;;;;70.25;44.45;;;0.20;99.90;;;;;;4938270;28;20180;-43
2023/03/03 00:38:14;;;;;;;73.63;44.90;;;0.30;99.90;;;;;;4938178;28;20192;-47
2023/03/03 00:40:40;;;;;;;80.18;46.80;;;0.40;99.90;;;;;;4937722;28;20238;-46
2023/03/03 00:43:33;;;;;;;74.60;46.35;;;0.50;99.90;;;;;;4938371;28;20658;-42
2023/03/03 00:45:58;;;;;;;69.82;46.60;;;0.50;99.90;;;;;;4937858;28;20544;-46
2023/03/03 00:48:29;;;;;;;81.07;46.27;;;0.60;99.90;;;;;;4937516;28;20196;-47
2023/03/03 00:50:59;;;;;;;75.03;47.58;;;0.60;99.90;;;;;;4939051;28;20220;-45
2023/03/03 00:53:29;;;;;;;75.32;44.53;;;0.60;99.90;;;;;;4937576;28;20663;-41
2023/03/03 00:55:56;;;;;;;75.22;48.55;;;0.60;99.90;;;;;;4938766;28;20196;-42
2023/03/03 00:58:23;;;;;;;73.88;46.47;;;0.60;99.90;;;;;;4940530;28;20190;-42
2023/03/03 01:00:51;;;;;;;71.00;44.95;;;0.60;99.90;;;;;;4943108;28;20206;-43
2023/03/03 01:03:23;;;;;;;76.00;44.35;;;0.70;99.90;;;;;;4941091;28;20215;-43
2023/03/03 01:05:49;;;;;;;69.53;45.17;;;0.70;99.90;;;;;;4940169;28;20208;-42
2023/03/03 01:08:16;;;;;;;66.53;43.97;;;0.70;99.90;;;;;;4941349;28;20206;-42
2023/03/03 01:10:53;;;;;;;78.10;44.88;;;0.70;99.90;;;;;;4935161;28;20258;-44
2023/03/03 01:13:22;;;;;;;71.55;43.30;;;0.70;99.90;;;;;;4941487;28;20718;-41
2023/03/03 01:15:48;;;;;;;69.95;44.20;;;0.70;99.90;;;;;;4941246;28;20664;-43
2023/03/03 01:18:14;;;;;;;67.68;43.63;;;0.70;99.90;;;;;;4942072;28;20236;-41
2023/03/03 01:20:40;;;;;;;70.37;44.97;;;0.60;99.90;;;;;;4940961;28;21269;-42
2023/03/03 01:23:06;;;;;;;70.43;44.30;;;0.70;99.90;;;;;;4940772;28;20538;-45
2023/03/03 01:25:31;;;;;;;71.80;44.20;;;0.70;99.90;;;;;;4941495;28;20282;-48
2023/03/03 01:27:57;;;;;;;71.53;44.40;;;0.70;99.90;;;;;;4940371;28;20847;-42
2023/03/03 01:30:23;;;;;;;64.70;43.70;;;0.70;99.90;;;;;;4939976;29;20192;-42
2023/03/03 01:32:50;;;;;;;71.80;45.25;;;0.70;99.90;;;;;;4941393;28;20678;-44
2023/03/03 01:35:16;;;;;;;69.88;43.50;;;0.80;99.90;;;;;;4941268;28;20607;-42
2023/03/03 01:37:41;;;;;;;70.40;44.25;;;0.70;99.90;;;;;;4940431;28;20273;-42
2023/03/03 01:40:16;;;;;;;72.53;46.23;;;0.80;99.90;;;;;;4940879;28;20184;-43
2023/03/03 01:42:42;;;;;;;69.47;44.72;;;0.70;99.90;;;;;;4943153;28;20244;-44
2023/03/03 01:45:26;;;;;;;69.00;45.00;;;0.70;99.90;;;;;;4940652;28;20651;-46
2023/03/03 01:48:12;;;;;;;69.30;44.33;;;0.70;99.90;;;;;;4939898;28;20427;-42
2023/03/03 01:50:47;;;;;;;66.43;43.83;;;0.70;99.90;;;;;;4940598;28;20219;-43
2023/03/03 01:53:19;;;;;;;65.93;43.22;;;0.70;99.90;;;;;;4942165;28;20632;-41
2023/03/03 01:55:47;;;;;;;68.35;43.22;;;0.80;99.90;;;;;;4939536;28;20177;-42
2023/03/03 01:58:19;;;;;;;59.97;42.92;;;0.80;99.90;;;;;;4941142;28;20239;-41
2023/03/03 02:00:49;;;;;;;66.28;43.58;;;0.70;99.90;;;;;;4940076;28;20188;-44
2023/03/03 02:03:15;;;;;;;66.57;43.75;;;0.70;99.90;;;;;;4940371;28;20204;-46
2023/03/03 02:05:42;;;;;;;68.73;43.17;;;0.80;99.90;;;;;;4940647;28;20196;-44
2023/03/03 02:08:11;;;;;;;66.32;43.40;;;0.80;99.90;;;;;;4939434;28;20453;-43
2023/03/03 02:10:37;;;;;;;71.20;42.55;;;0.80;99.90;;;;;;4939591;29;20214;-43
2023/03/03 02:13:03;;;;;;;63.43;43.03;;;0.90;99.90;;;;;;4940075;28;20203;-47
2023/03/03 02:15:31;;;;;;;63.23;42.50;;;0.80;99.90;;;;;;4940100;28;20443;-43
2023/03/03 02:18:01;;;;;;;66.13;42.15;;;0.90;99.90;;;;;;4937517;28;20600;-46
2023/03/03 02:20:55;;;;;;;64.03;41.92;;;0.90;99.90;;;;;;4939428;28;20506;-42
2023/03/03 02:23:25;;;;;;;65.72;42.15;;;0.80;99.90;;;;;;4938749;28;20198;-43
2023/03/03 02:25:57;;;;;;;67.28;42.13;;;0.80;99.90;;;;;;4940848;28;20646;-43
2023/03/03 02:28:26;;;;;;;64.85;42.10;;;0.80;99.90;;;;;;4942489;28;20223;-43
2023/03/03 02:30:56;;;;;;;65.20;42.72;;;0.80;99.90;;;;;;4939453;28;20294;-44
2023/03/03 02:33:22;;;;;;;65.72;42.33;;;0.70;99.90;;;;;;4939850;29;20192;-42
2023/03/03 02:35:48;;;;;;;58.07;41.07;;;0.70;99.90;;;;;;4941528;28;20550;-45
2023/03/03 02:38:25;;;;;;;64.57;41.20;;;0.70;99.90;;;;;;4939919;28;20956;-43
2023/03/03 02:41:20;;;;;;;77.25;43.40;;;0.70;99.90;;;;;;4938579;28;20505;-43
2023/03/03 02:43:55;;;;;;;61.80;41.90;;;0.70;99.90;;;;;;4939549;29;20211;-45
2023/03/03 02:46:20;;;;;;;58.70;40.25;;;0.80;99.90;;;;;;4939526;28;20668;-47
2023/03/03 02:48:46;;;;;;;65.40;42.07;;;0.70;99.90;;;;;;4939777;28;20282;-45
2023/03/03 02:51:12;;;;;;;61.43;39.90;;;0.60;99.90;;;;;;4939536;28;20207;-45
2023/03/03 02:53:37;;;;;;;63.57;40.43;;;0.60;99.90;;;;;;4940393;28;20191;-42
2023/03/03 02:56:03;;;;;;;60.73;40.37;;;0.60;99.90;;;;;;4940537;28;20198;-42
2023/03/03 02:58:29;;;;;;;61.70;41.17;;;0.60;99.90;;;;;;4939538;28;20188;-40
2023/03/03 03:00:56;;;;;;;63.67;42.20;;;0.60;99.90;;;;;;4938821;28;21031;-44
2023/03/03 03:03:21;;;;;;;62.03;39.95;;;0.50;99.90;;;;;;4938595;29;20218;-46
2023/03/03 03:05:47;;;;;;;68.63;43.03;;;0.50;99.90;;;;;;4940639;28;20274;-45
2023/03/03 03:08:13;;;;;;;72.57;42.17;;;0.50;99.90;;;;;;4937118;28;20443;-44
2023/03/03 03:10:38;;;;;;;70.93;41.00;;;0.50;99.90;;;;;;4938513;28;20233;-45
2023/03/03 03:13:04;;;;;;;61.90;41.60;;;0.40;99.90;;;;;;4939259;28;20215;-44
2023/03/03 03:15:30;;;;;;;62.20;40.77;;;0.40;99.90;;;;;;4937750;28;20724;-43
2023/03/03 03:17:55;;;;;;;67.03;40.87;;;0.50;99.90;;;;;;4938557;28;20235;-44
2023/03/03 03:20:21;;;;;;;54.93;38.70;;;0.50;99.90;;;;;;4939896;28;20322;-44
2023/03/03 03:22:46;;;;;;;59.73;40.03;;;0.50;99.90;;;;;;4938553;28;20223;-45
2023/03/03 03:25:12;;;;;;;64.37;38.30;;;0.50;99.90;;;;;;4939877;28;20215;-46
2023/03/03 03:27:38;;;;;;;60.23;40.20;;;0.40;99.90;;;;;;4939216;28;20525;-42
2023/03/03 03:30:04;;;;;;;69.27;37.83;;;0.40;99.90;;;;;;4938977;28;20195;-44
2023/03/03 03:32:29;;;;;;;53.53;38.97;;;0.40;99.90;;;;;;4939108;28;20657;-44
2023/03/03 03:34:55;;;;;;;59.03;38.27;;;0.50;99.90;;;;;;4938759;28;20274;-42
2023/03/03 03:37:21;;;;;;;55.17;38.17;;;0.50;99.90;;;;;;4939843;28;20180;-43
2023/03/03 03:39:46;;;;;;;54.27;36.77;;;0.50;99.90;;;;;;4937906;28;20192;-47
2023/03/03 03:42:12;;;;;;;55.47;36.93;;;0.50;99.90;;;;;;4939616;28;20599;-43
2023/03/03 03:44:37;;;;;;;56.00;37.20;;;0.50;99.90;;;;;;4937810;28;20202;-42
2023/03/03 03:47:03;;;;;;;57.60;37.30;;;0.40;99.90;;;;;;4941123;28;20180;-44
2023/03/03 03:49:29;;;;;;;59.10;38.40;;;0.40;99.90;;;;;;4938563;28;20552;-44
2023/03/03 03:51:54;;;;;;;63.53;37.80;;;0.40;99.90;;;;;;4938605;28;20215;-44
2023/03/03 03:54:20;;;;;;;55.77;36.33;;;0.50;99.90;;;;;;4938362;28;20274;-45
2023/03/03 03:56:46;;;;;;;57.40;36.90;;;0.50;99.90;;;;;;4936838;28;20235;-44
2023/03/03 03:59:11;;;;;;;60.50;37.37;;;0.50;99.90;;;;;;4939853;28;20191;-46
2023/03/03 04:01:37;;;;;;;56.43;36.73;;;0.50;99.90;;;;;;4937491;28;20739;-43
2023/03/03 04:04:03;;;;;;;62.07;37.90;;;0.50;99.90;;;;;;4938436;29;20682;-43
2023/03/03 04:06:30;;;;;;;60.47;38.50;;;0.50;99.90;;;;;;4939115;28;20184;-43
2023/03/03 04:08:56;;;;;;;57.88;36.63;;;0.30;99.90;;;;;;4940011;28;20218;-43
2023/03/03 04:11:21;;;;;;;55.43;35.63;;;0.30;99.90;;;;;;4932521;28;20211;-42
2023/03/03 04:13:47;;;;;;;56.20;36.53;;;0.40;99.90;;;;;;4939391;28;20523;-46
2023/03/03 04:16:13;;;;;;;62.57;36.47;;;0.30;99.90;;;;;;4938185;28;20183;-43
2023/03/03 04:18:38;;;;;;;57.60;36.03;;;0.30;99.90;;;;;;4938904;28;20589;-45
2023/03/03 04:21:04;;;;;;;57.87;38.90;;;0.30;99.90;;;;;;4938089;28;20264;-44
2023/03/03 04:23:30;;;;;;;55.80;38.40;;;0.20;99.90;;;;;;4938583;29;20572;-46
2023/03/03 04:25:55;;;;;;;55.90;36.23;;;0.20;99.90;;;;;;4938050;28;20439;-43
2023/03/03 04:28:24;;;;;;;59.77;36.83;;;0.30;99.90;;;;;;4938513;29;20655;-45
2023/03/03 04:30:49;;;;;;;50.35;34.05;;;0.30;99.90;;;;;;4939976;28;20291;-44
2023/03/03 04:33:15;;;;;;;55.17;36.20;;;0.20;99.90;;;;;;4941204;28;20196;-43
2023/03/03 04:35:40;;;;;;;53.70;35.17;;;0.20;99.90;;;;;;4941923;28;20226;-43
2023/03/03 04:38:06;;;;;;;52.23;33.60;;;0.20;99.90;;;;;;4941872;28;20435;-43
2023/03/03 04:40:32;;;;;;;51.70;34.57;;;0.30;99.90;;;;;;4940945;28;20191;-43
2023/03/03 04:42:57;;;;;;;53.20;34.20;;;0.20;99.90;;;;;;4941428;28;20226;-43
2023/03/03 04:45:23;;;;;;;58.60;35.77;;;0.30;99.90;;;;;;4940632;28;20274;-41
2023/03/03 04:47:48;;;;;;;53.57;34.20;;;0.30;99.90;;;;;;4941546;28;20192;-44
2023/03/03 04:50:14;;;;;;;52.30;34.90;;;0.30;99.90;;;;;;4940217;28;20184;-42
2023/03/03 04:52:40;;;;;;;48.83;32.47;;;0.30;99.90;;;;;;4941436;28;20514;-46
2023/03/03 04:55:06;;;;;;;50.00;32.77;;;0.30;99.90;;;;;;4941138;28;20196;-42
2023/03/03 04:57:31;;;;;;;56.72;33.63;;;0.30;99.90;;;;;;4941157;28;20188;-45
2023/03/03 04:59:57;;;;;;;50.23;32.67;;;0.20;99.90;;;;;;4941133;28;20579;-46
2023/03/03 05:02:23;;;;;;;49.40;32.13;;;0.30;99.90;;;;;;4939323;28;20753;-44
2023/03/03 05:04:48;;;;;;;46.17;30.40;;;0.30;99.90;;;;;;4941167;28;20240;-42
2023/03/03 05:07:14;;;;;;;47.07;30.93;;;0.30;99.90;;;;;;4941661;28;20199;-43
2023/03/03 05:09:39;;;;;;;47.37;31.90;;;0.30;99.90;;;;;;4940560;28;20191;-42
2023/03/03 05:12:06;;;;;;;45.93;30.60;;;0.30;99.90;;;;;;4941550;28;20270;-41
2023/03/03 05:14:31;;;;;;;41.53;31.20;;;0.30;99.90;;;;;;4939889;28;20215;-43
2023/03/03 05:16:57;;;;;;;43.87;31.43;;;0.30;99.90;;;;;;4939934;28;20386;-42
2023/03/03 05:19:23;;;;;;;40.50;29.20;;;0.30;99.90;;;;;;4940743;28;20239;-42
2023/03/03 05:21:48;;;;;;;44.50;30.27;;;0.30;99.90;;;;;;4941660;28;20313;-43
2023/03/03 05:24:15;;;;;;;47.97;32.10;;;0.30;99.90;;;;;;4940415;28;20203;-43
2023/03/03 05:26:41;;;;;;;44.40;30.10;;;0.30;99.90;;;;;;4940386;28;20522;-42
2023/03/03 05:29:07;;;;;;;43.20;30.43;;;0.30;99.90;;;;;;4941786;29;20319;-42
2023/03/03 05:31:33;;;;;;;44.65;31.75;;;0.40;99.90;;;;;;4940888;28;20475;-42
2023/03/03 05:33:59;;;;;;;48.50;31.02;;;0.30;99.90;;;;;;4941514;29;20187;-44
2023/03/03 05:36:24;;;;;;;45.33;29.83;;;0.40;99.90;;;;;;4941075;28;20197;-44
2023/03/03 05:38:50;;;;;;;45.43;30.50;;;0.30;99.90;;;;;;4941306;28;20184;-41
2023/03/03 05:41:16;;;;;;;49.80;32.07;;;0.30;99.90;;;;;;4940182;28;20191;-43
2023/03/03 05:43:42;;;;;;;44.73;31.50;;;0.30;99.90;;;;;;4939912;28;20455;-42
2023/03/03 05:46:09;;;;;;;47.08;30.35;;;0.30;99.90;;;;;;4939786;28;20222;-42
2023/03/03 05:48:35;;;;;;;50.75;31.52;;;0.20;99.90;;;;;;4940588;29;20194;-41
2023/03/03 05:51:01;;;;;;;46.60;31.93;;;0.30;99.90;;;;;;4940499;28;20906;-46
2023/03/03 05:53:27;;;;;;;50.83;30.47;;;0.30;99.90;;;;;;4940622;28;20283;-43
2023/03/03 05:55:53;;;;;;;49.75;30.98;;;0.30;99.90;;;;;;4940318;28;20601;-42
2023/03/03 05:58:19;;;;;;;46.95;30.85;;;0.30;99.90;;;;;;4939069;29;20186;-41
2023/03/03 06:00:45;;;;;;;49.60;31.20;;;0.40;99.90;;;;;;4941427;28;20211;-43
2023/03/03 06:03:11;;;;;;;53.17;30.90;;;0.40;99.90;;;;;;4940343;29;20238;-42
2023/03/03 06:05:36;;;;;;;47.70;30.47;;;0.40;99.90;;;;;;4940348;28;20420;-45
2023/03/03 06:08:02;;;;;;;54.40;33.30;;;0.40;99.90;;;;;;4940646;29;20578;-42
2023/03/03 06:10:28;;;;;;;52.97;32.03;;;0.30;99.90;;;;;;4940842;28;20631;-42
2023/03/03 06:12:54;;;;;;;49.47;31.40;;;0.40;99.90;;;;;;4940469;28;20263;-42
2023/03/03 06:15:21;;;;;;;54.50;31.80;;;0.30;99.90;;;;;;4940198;28;21167;-41
2023/03/03 06:17:46;;;;;;;51.97;33.47;;;0.40;99.90;;;;;;4940135;29;20554;-41
2023/03/03 06:20:12;;;;;;;51.80;31.37;;;0.40;99.90;;;;;;4939853;28;20643;-42
2023/03/03 06:22:38;;;;;;;50.00;31.03;;;0.40;99.90;;;;;;4940571;29;20198;-42
2023/03/03 06:25:04;;;;;;;53.10;30.03;;;0.50;99.90;;;;;;4939905;28;20192;-43
2023/03/03 06:27:29;;;;;;;52.90;30.47;;;0.50;99.90;;;;;;4939931;28;20199;-43
2023/03/03 06:29:55;;;;;;;50.17;30.77;;;0.50;99.90;;;;;;4940363;28;20446;-45
2023/03/03 06:32:20;;;;;;;47.33;30.83;;;0.60;99.90;;;;;;4939757;29;20252;-42
2023/03/03 06:34:46;;;;;;;46.83;28.90;;;0.60;99.90;;;;;;4938094;29;20666;-42
2023/03/03 06:37:12;;;;;;;56.00;31.07;;;0.70;99.90;;;;;;4938368;29;20934;-43
2023/03/03 06:39:37;;;;;;;46.30;28.30;;;0.70;99.90;;;;;;4939609;28;20205;-43
2023/03/03 06:42:03;;;;;;;57.90;35.80;;;0.70;99.90;;;;;;4939731;29;20246;-41
2023/03/03 06:44:29;;;;;;;60.73;33.63;;;0.70;99.90;;;;;;4939503;28;20658;-43
2023/03/03 06:46:56;;;;;;;71.47;39.87;;;0.60;99.90;;;;;;4939816;28;20249;-43
2023/03/03 06:49:22;;;;;;;58.55;34.67;;;0.50;99.90;;;;;;4939746;29;20183;-42
2023/03/03 06:51:48;;;;;;;56.60;34.67;;;0.50;99.90;;;;;;4939388;29;20218;-45
2023/03/03 06:54:16;;;;;;;52.93;29.50;;;0.60;99.90;;;;;;4939803;28;20660;-45
2023/03/03 06:56:43;;;;;;;60.28;31.63;;;0.50;99.90;;;;;;4939742;29;20268;-43
2023/03/03 06:59:17;;;;;;;49.97;33.20;;;0.50;99.90;;;;;;4940448;28;20575;-44
2023/03/03 07:01:44;;;;;;;63.58;35.63;;;0.60;99.90;;;;;;4939489;28;20194;-42
2023/03/03 07:04:32;;;;;;;54.22;31.42;;;0.60;99.90;;;;;;4939536;28;20320;-41
2023/03/03 07:07:07;;;;;;;60.00;33.15;;;0.60;99.90;;;;;;4939140;29;20374;-41
2023/03/03 07:09:33;;;;;;;57.70;33.35;;;0.70;99.90;;;;;;4939283;29;20567;-45
2023/03/03 07:12:14;;;;;;;61.00;33.60;;;0.70;99.90;;;;;;4939479;29;20216;-45
2023/03/03 07:14:42;;;;;;;56.65;32.08;;;0.60;99.90;;;;;;4939368;29;20717;-42
2023/03/03 07:17:17;;;;;;;57.97;33.08;;;0.70;99.90;;;;;;4939284;28;20192;-42
2023/03/03 07:19:44;;;;;;;50.40;30.00;;;0.70;99.90;;;;;;4938968;28;20666;-42
2023/03/03 07:22:14;;;;;;;46.63;28.83;;;0.70;99.90;;;;;;4934201;28;20196;-42
2023/03/03 07:24:44;;;;;;;47.15;27.92;;;0.70;99.90;;;;;;4939450;28;20842;-40
2023/03/03 07:27:18;;;;;;;48.10;29.13;;;0.80;99.90;;;;;;4939347;29;20188;-43
2023/03/03 07:29:47;;;;;;;51.45;28.98;;;0.90;99.90;;;;;;4939098;28;20338;-41
2023/03/03 07:32:21;;;;;;;53.95;30.38;;;0.90;99.90;;;;;;4939165;28;20632;-43
2023/03/03 07:34:49;;;;;;;45.10;30.27;;;1.00;99.90;;;;;;4939030;28;20190;-43
2023/03/03 07:37:30;;;;;;;51.13;29.25;;;0.90;99.90;;;;;;4939096;29;20310;-42
2023/03/03 07:39:57;;;;;;;46.95;29.70;;;1.00;99.90;;;;;;4937371;29;20189;-42
2023/03/03 07:42:27;;;;;;;44.95;28.35;;;1.00;99.90;;;;;;4939326;29;20189;-42
2023/03/03 07:44:55;;;;;;;50.00;27.80;;;1.00;99.90;;;;;;4939175;28;20189;-44
2023/03/03 07:47:29;;;;;;;43.92;27.80;;;1.10;99.90;;;;;;4938952;28;20625;-44
2023/03/03 07:49:58;;;;;;;41.00;26.33;;;1.10;99.90;;;;;;4938989;28;20196;-45
2023/03/03 07:52:38;;;;;;;46.40;27.98;;;1.10;99.90;;;;;;4938619;29;20724;-42
2023/03/03 07:55:34;;;;;;;44.95;27.52;;;1.10;99.90;;;;;;4938748;28;20235;-41
2023/03/03 07:58:13;;;;;;;44.55;26.45;;;1.10;99.90;;;;;;4938883;28;20200;-45
2023/03/03 08:00:39;;;;;;;42.30;27.00;;;1.00;99.90;;;;;;4939720;28;20266;-43
2023/03/03 08:03:13;;;;;;;43.83;27.93;;;1.10;99.90;;;;;;4939136;28;20275;-44
2023/03/03 08:05:41;;;;;;;39.92;28.13;;;1.20;99.90;;;;;;4940642;28;20649;-43
2023/03/03 08:08:29;;;;;;;42.15;26.40;;;1.20;99.90;;;;;;4942207;28;20180;-46
2023/03/03 08:11:00;;;;;;;37.17;25.95;;;1.20;99.90;;;;;;4942097;29;20540;-41
2023/03/03 08:13:37;;;;;;;39.50;26.15;;;1.20;99.90;;;;;;4942483;29;20176;-41
2023/03/03 08:16:08;;;;;;;40.35;26.60;;;1.30;99.90;;;;;;4942136;28;20188;-42
2023/03/03 08:18:46;;;;;;;42.67;26.92;;;1.30;99.90;;;;;;4942218;29;20839;-41
2023/03/03 08:21:25;;;;;;;43.03;26.80;;;1.30;99.90;;;;;;4942042;28;20565;-41
2023/03/03 08:23:52;;;;;;;39.33;25.42;;;1.30;99.90;;;;;;4942149;28;20196;-43
2023/03/03 08:26:18;;;;;;;38.85;26.27;;;1.40;99.90;;;;;;4940165;28;20683;-42
2023/03/03 08:28:45;;;;;;;41.00;24.13;;;1.40;99.90;;;;;;4941849;28;20185;-43
2023/03/03 08:31:11;;;;;;;40.63;24.55;;;1.50;99.90;;;;;;4942059;28;20335;-41
2023/03/03 08:33:37;;;;;;;37.08;26.13;;;1.50;99.90;;;;;;4942012;29;20192;-42
2023/03/03 08:36:04;;;;;;;32.22;24.02;;;1.60;99.90;;;;;;4942020;29;20198;-40
2023/03/03 08:38:29;;;;;;;33.58;24.05;;;1.50;99.90;;;;;;4941507;29;20580;-43
2023/03/03 08:40:55;;;;;;;32.83;23.90;;;1.50;99.90;;;;;;4941542;29;20270;-44
2023/03/03 08:43:21;;;;;;;36.80;23.53;;;1.40;99.90;;;;;;4942052;28;20802;-41
2023/03/03 08:45:52;;;;;;;34.70;24.45;;;1.40;99.90;;;;;;4941796;29;20192;-42
2023/03/03 08:48:19;;;;;;;32.95;24.05;;;1.40;99.90;;;;;;4941952;28;20202;-42
2023/03/03 08:50:46;;;;;;;33.65;23.73;;;1.50;99.90;;;;;;4941298;29;20200;-41
2023/03/03 08:53:12;;;;;;;29.42;22.73;;;1.50;99.90;;;;;;4940001;28;20436;-43
2023/03/03 08:55:39;;;;;;;33.25;23.55;;;1.60;99.90;;;;;;4941524;28;20647;-41
2023/03/03 08:58:05;;;;;;;34.80;22.88;;;1.60;99.90;;;;;;4941376;28;20207;-41
2023/03/03 09:00:30;;;;;;;27.37;22.33;;;1.60;99.90;;;;;;4941795;28;20470;-42
2023/03/03 09:02:56;;;;;;;28.87;23.00;;;1.70;99.90;;;;;;4941372;29;20193;-41
2023/03/03 09:05:23;;;;;;;31.63;22.90;;;1.70;99.90;;;;;;4941121;29;20196;-41
2023/03/03 09:07:50;;;;;;;32.15;23.30;;;1.80;99.90;;;;;;4941199;29;20555;-41
2023/03/03 09:10:19;;;;;;;27.08;21.00;;;1.80;99.90;;;;;;4941458;28;20192;-42
2023/03/03 09:12:47;;;;;;;28.27;20.92;;;1.80;99.90;;;;;;4941200;28;20262;-44
2023/03/03 09:15:18;;;;;;;25.00;19.77;;;1.80;99.90;;;;;;4940943;28;20209;-41
2023/03/03 09:17:44;;;;;;;22.58;19.52;;;1.80;99.90;;;;;;4938938;28;20250;-42
2023/03/03 09:20:32;;;;;;;25.30;19.97;;;1.60;99.90;;;;;;4940458;28;20556;-40
2023/03/03 09:23:19;;;;;;;23.80;19.65;;;1.70;99.90;;;;;;4941389;29;20430;-42
2023/03/03 09:25:45;;;;;;;22.33;19.00;;;1.70;99.90;;;;;;4941015;28;20686;-44
2023/03/03 09:28:29;;;;;;;22.07;19.77;;;1.70;99.90;;;;;;4941449;29;20181;-45
2023/03/03 09:31:00;;;;;;;25.70;20.70;;;1.70;99.90;;;;;;4940544;28;20472;-42
2023/03/03 09:33:48;;;;;;;23.85;20.45;;;1.60;99.90;;;;;;4940636;29;20226;-42
2023/03/03 09:36:27;;;;;;;23.55;19.15;;;1.60;99.90;;;;;;4940521;29;20189;-44
2023/03/03 09:38:54;;;;;;;24.00;20.08;;;1.60;99.90;;;;;;4940372;28;20191;-42
2023/03/03 09:41:23;;;;;;;22.23;19.83;;;1.70;99.90;;;;;;4940870;29;20281;-42
2023/03/03 09:44:01;;;;;;;22.90;19.27;;;1.70;99.90;;;;;;4940875;28;20211;-42
2023/03/03 09:47:03;;;;;;;21.30;18.85;;;1.80;99.90;;;;;;4940596;29;20532;-42
2023/03/03 09:49:44;;;;;;;21.25;18.77;;;1.90;99.90;;;;;;4939581;28;20625;-45
2023/03/03 09:52:38;;;;;;;22.17;18.20;;;1.80;99.90;;;;;;4940441;28;20201;-41
2023/03/03 09:55:34;;;;;;;23.42;18.80;;;1.80;99.90;;;;;;4940067;29;20332;-44
2023/03/03 09:58:06;;;;;;;21.23;18.92;;;1.80;99.90;;;;;;4940339;29;20335;-42
2023/03/03 10:00:41;;;;;;;20.90;18.33;;;1.80;99.90;;;;;;4940279;28;20188;-42
2023/03/03 10:03:30;;;;;;;19.77;17.77;;;1.80;99.90;;;;;;4940464;29;20654;-43
2023/03/03 10:06:07;;;;;;;20.63;18.23;;;1.80;99.90;;;;;;4940259;29;20188;-44
2023/03/03 10:09:16;;;;;;;26.38;22.30;;;1.80;99.90;;;;;;4940804;28;20233;-42
2023/03/03 10:11:52;;;;;;;18.52;16.80;;;1.70;99.90;;;;;;4940202;29;20263;-43
2023/03/03 10:14:32;;;;;;;21.60;19.50;;;1.70;99.90;;;;;;4940205;29;20183;-42
2023/03/03 10:17:23;;;;;;;27.52;24.63;;;1.70;99.90;;;;;;4939898;29;20193;-42
2023/03/03 10:19:58;;;;;;;46.63;39.72;;;1.60;99.90;;;;;;4939006;28;20236;-42
2023/03/03 10:22:39;;;;;;;25.33;22.80;;;1.50;99.90;;;;;;4939755;29;20628;-42
2023/03/03 10:25:14;;;;;;;19.30;17.30;;;1.60;99.90;;;;;;4941439;28;20192;-42
2023/03/03 10:28:06;;;;;;;19.33;17.33;;;1.70;99.90;;;;;;4939652;28;20195;-42
2023/03/03 10:30:52;;;;;;;19.50;17.60;;;1.70;99.90;;;;;;4940317;29;20323;-41
2023/03/03 10:33:39;;;;;;;18.83;16.92;;;1.80;99.90;;;;;;4940352;29;20181;-40
2023/03/03 10:36:38;;;;;;;19.55;17.65;;;1.80;99.90;;;;;;4939831;28;20192;-41
2023/03/03 10:39:06;;;;;;;34.38;30.67;;;1.80;99.90;;;;;;4939720;28;20358;-41
2023/03/03 10:42:10;;;;;;;24.67;22.17;;;1.90;99.90;;;;;;4939965;28;20215;-41
2023/03/03 10:44:41;;;;;;;19.92;17.88;;;1.90;99.90;;;;;;4997892;28;20206;-48
2023/03/03 10:47:10;;;;;;;24.23;21.77;;;1.90;99.90;;;;;;4950078;28;20213;-44
2023/03/03 10:50:01;;;;;;;18.73;16.92;;;1.90;99.90;;;;;;4939491;28;20192;-42
2023/03/03 10:52:37;;;;;;;18.58;16.65;;;2.00;99.90;;;;;;4939502;28;20244;-44
2023/03/03 10:55:03;;;;;;;19.60;17.60;;;2.00;99.90;;;;;;4939444;29;20341;-44
2023/03/03 10:57:52;;;;;;;19.43;17.63;;;2.00;99.90;;;;;;4938466;29;21068;-42
2023/03/03 11:00:45;;;;;;;19.63;17.73;;;2.00;99.90;;;;;;4939746;28;20185;-41
2023/03/03 11:03:29;;;;;;;17.95;16.25;;;2.00;99.90;;;;;;4939850;29;20208;-45
2023/03/03 11:06:14;;;;;;;18.85;17.05;;;2.10;99.90;;;;;;4939578;29;20193;-44
2023/03/03 11:08:56;;;;;;;18.42;16.73;;;2.20;99.90;;;;;;4939545;29;20192;-45
2023/03/03 11:11:28;;;;;;;18.45;16.80;;;2.20;99.90;;;;;;4939420;29;20654;-46
2023/03/03 11:14:06;;;;;;;18.33;16.63;;;2.10;99.90;;;;;;4939410;29;20185;-43
2023/03/03 11:17:03;;;;;;;17.60;16.10;;;2.20;99.90;;;;;;4939726;29;20173;-41
2023/03/03 11:19:32;;;;;;;17.85;16.27;;;2.30;99.90;;;;;;4940864;28;20236;-43
2023/03/03 11:22:36;;;;;;;17.08;15.57;;;2.30;99.90;;;;;;4939731;29;20364;-43
2023/03/03 11:25:20;;;;;;;16.80;15.30;;;2.30;99.90;;;;;;4990398;28;20203;-44
2023/03/03 11:28:12;;;;;;;17.45;15.85;;;2.40;99.90;;;;;;4938997;28;20611;-41
2023/03/03 11:31:18;;;;;;;16.73;15.23;;;2.40;99.90;;;;;;4939187;29;20185;-43
2023/03/03 11:33:55;;;;;;;17.20;15.60;;;2.50;99.90;;;;;;4939179;28;20200;-43
2023/03/03 11:36:40;;;;;;;16.75;15.35;;;2.50;99.90;;;;;;4939077;29;20226;-41
2023/03/03 11:39:13;;;;;;;16.35;14.95;;;2.50;99.90;;;;;;4938578;28;20181;-43
2023/03/03 11:41:53;;;;;;;16.77;15.38;;;2.50;99.90;;;;;;4938984;29;20272;-46
2023/03/03 11:44:33;;;;;;;17.45;15.95;;;2.70;99.90;;;;;;4939111;29;20185;-44
2023/03/03 11:47:02;;;;;;;20.25;18.25;;;2.60;99.90;;;;;;4939418;28;20195;-43
2023/03/03 11:49:28;;;;;;;25.52;22.10;;;2.60;99.90;;;;;;4938982;28;20196;-42
2023/03/03 11:52:23;;;;;;;18.40;16.90;;;2.60;99.90;;;;;;4939090;28;20213;-43
2023/03/03 11:55:00;;;;;;;45.17;34.95;;;2.60;99.90;;;;;;4939101;29;20451;-41
2023/03/03 11:57:36;;;;;;;89.93;60.05;;;2.50;99.90;;;;;;4937841;28;20195;-43
2023/03/03 12:00:36;;;;;;;20.40;18.40;;;2.40;99.90;;;;;;4939486;28;20429;-42
2023/03/03 12:03:26;;;;;;;25.33;22.90;;;2.40;99.90;;;;;;4938908;29;20200;-42
2023/03/03 12:06:11;;;;;;;28.55;25.65;;;2.40;99.90;;;;;;4938784;29;20217;-43
2023/03/03 12:08:46;;;;;;;22.52;20.42;;;2.40;99.90;;;;;;4938478;29;20197;-44
2023/03/03 12:11:21;;;;;;;16.77;15.38;;;2.50;99.90;;;;;;4938762;29;20217;-41
2023/03/03 12:14:09;;;;;;;20.90;18.95;;;2.50;99.90;;;;;;4938783;29;20184;-43
2023/03/03 12:16:53;;;;;;;19.52;17.77;;;2.50;99.90;;;;;;4938549;28;20189;-43
2023/03/03 12:20:17;;;;;;;17.00;15.63;;;2.70;99.90;;;;;;4938595;28;20225;-41
2023/03/03 12:23:01;;;;;;;15.68;14.35;;;2.70;99.90;;;;;;4989135;28;20678;-44
2023/03/03 12:26:02;;;;;;;18.45;16.85;;;2.80;99.90;;;;;;4938125;29;20693;-43
2023/03/03 12:28:36;;;;;;;15.75;14.23;;;2.60;99.90;;;;;;4940872;28;20262;-44
2023/03/03 12:31:17;;;;;;;17.42;15.93;;;2.70;99.90;;;;;;4938448;29;20675;-43
2023/03/03 12:33:55;;;;;;;16.27;14.90;;;2.80;99.90;;;;;;4938497;29;20666;-44
2023/03/03 12:36:36;;;;;;;17.55;15.73;;;2.80;99.90;;;;;;4938306;28;20194;-46
2023/03/03 12:39:14;;;;;;;36.42;32.60;;;2.80;99.90;;;;;;4938199;28;20191;-42
2023/03/03 12:42:01;;;;;;;17.08;15.48;;;2.80;99.90;;;;;;4938267;29;20245;-43
2023/03/03 12:44:47;;;;;;;15.82;14.40;;;2.90;99.90;;;;;;4938697;28;20212;-46
2023/03/03 12:47:32;;;;;;;16.10;14.63;;;3.00;99.90;;;;;;4938360;28;20188;-41
2023/03/03 12:50:32;;;;;;;15.48;14.10;;;3.10;99.90;;;;;;4938708;28;20231;-44
2023/03/03 12:53:29;;;;;;;14.68;13.55;;;3.10;99.90;;;;;;4941809;29;20204;-43
2023/03/03 12:56:05;;;;;;;15.77;14.55;;;3.20;99.90;;;;;;4945995;28;20213;-43
2023/03/03 12:58:55;;;;;;;14.55;13.45;;;3.20;99.90;;;;;;4940763;29;20212;-42
2023/03/03 13:01:46;;;;;;;14.68;13.40;;;3.20;99.90;;;;;;4941061;29;20591;-46
2023/03/03 13:04:30;;;;;;;14.60;13.40;;;3.20;99.90;;;;;;4941554;29;20185;-46